Southgate, Michigan
Current Conditions -  °F | °C
As of 7:53 AM on Sunday 23 Nov 2014 (Local Time) from KDTW Reporting Station
Overcast Overcast  
Wind Chill: 41°   Ceiling: 4400
Heat Index: 45°   Visibility: 7mi
Dew Point: 43°   Wind: 8mph
Humidity: 93%   Direction: 160°SSE
Pressure: 29.94"   Gusts: NA
Location:  42.2°N, 83.21°W
Report Text: KDTW 231253Z 16007KT 7SM FEW027 SCT036 OVC044 07/06 A2994 RMK AO2 RAE16 SLP141 P0000 T00720061 $
Loading
Personal Weather Stations






























Interactive Weather Map New forecast layout! Learn more

10-Day Weather Forecast

Advertisements
Track Severe Weather on mobile